createdAt,value
2022-09-18T00:00:55.893Z,99.83
2022-09-18T00:03:17.416Z,100.00
2022-09-18T00:05:39.008Z,100.00
2022-09-18T00:08:00.424Z,100.00
2022-09-18T00:10:21.879Z,100.00
2022-09-18T00:12:43.305Z,99.97
2022-09-18T00:15:05.262Z,99.81
2022-09-18T00:17:26.674Z,100.00
2022-09-18T00:19:49.154Z,100.00
2022-09-18T00:22:10.567Z,100.00
2022-09-18T00:24:31.985Z,100.00
2022-09-18T00:26:53.447Z,100.00
2022-09-18T00:29:15.787Z,100.00
2022-09-18T00:31:37.818Z,100.00
2022-09-18T00:34:02.585Z,100.00
2022-09-18T00:36:24.164Z,100.00
2022-09-18T00:38:46.474Z,100.00
2022-09-18T00:41:13.081Z,100.00
2022-09-18T00:43:36.140Z,100.00
2022-09-18T00:45:59.161Z,100.00
2022-09-18T00:48:22.304Z,100.00
2022-09-18T00:50:43.799Z,100.00
2022-09-18T00:53:06.223Z,100.00
2022-09-18T00:55:34.708Z,100.00
2022-09-18T00:57:58.872Z,100.00
2022-09-18T01:00:21.294Z,100.00
2022-09-18T01:02:44.836Z,100.00
2022-09-18T01:05:07.814Z,100.00
2022-09-18T01:07:47.344Z,100.00
2022-09-18T01:10:47.102Z,100.00
2022-09-18T01:13:18.430Z,100.00
2022-09-18T01:15:45.539Z,100.00
2022-09-18T01:18:31.246Z,100.00
2022-09-18T01:21:14.904Z,100.00
2022-09-18T01:24:06.789Z,100.00
2022-09-18T01:26:31.059Z,100.00
2022-09-18T01:29:01.589Z,100.00
2022-09-18T01:31:40.176Z,100.00
2022-09-18T01:34:34.904Z,100.00
2022-09-18T01:37:06.465Z,100.00
2022-09-18T01:39:37.632Z,100.00
2022-09-18T01:42:00.915Z,100.00
2022-09-18T01:44:28.302Z,100.00
2022-09-18T01:46:51.051Z,100.00
2022-09-18T01:49:16.454Z,100.00
2022-09-18T01:51:57.230Z,100.00
2022-09-18T01:54:24.304Z,100.00
2022-09-18T01:57:02.559Z,100.00
2022-09-18T01:59:42.826Z,100.00
2022-09-18T02:02:09.713Z,100.00
2022-09-18T02:04:35.012Z,100.00
2022-09-18T02:07:20.643Z,100.00
2022-09-18T02:09:43.601Z,100.00
2022-09-18T02:12:08.641Z,100.00
2022-09-18T02:14:34.567Z,100.00
2022-09-18T02:17:03.549Z,100.00
2022-09-18T02:19:35.278Z,100.00
2022-09-18T02:21:59.383Z,100.00
2022-09-18T02:24:24.618Z,100.00
2022-09-18T02:26:47.952Z,100.00
2022-09-18T02:29:12.380Z,100.00
2022-09-18T02:31:34.519Z,100.00
2022-09-18T02:33:56.022Z,100.00
2022-09-18T02:36:42.211Z,100.00
2022-09-18T02:39:16.094Z,100.00
2022-09-18T02:42:18.966Z,100.00
2022-09-18T02:44:59.775Z,100.00
2022-09-18T02:47:54.853Z,100.00
2022-09-18T02:50:29.990Z,100.00
2022-09-18T02:53:08.974Z,100.00
2022-09-18T02:55:41.404Z,100.00
2022-09-18T02:58:09.863Z,100.00
2022-09-18T03:00:32.454Z,100.00
2022-09-18T03:02:58.812Z,100.00
2022-09-18T03:05:20.362Z,100.00
2022-09-18T03:07:41.785Z,100.00
2022-09-18T03:10:03.399Z,100.00
2022-09-18T03:12:24.881Z,100.00
2022-09-18T03:14:46.278Z,100.00
2022-09-18T03:17:07.884Z,100.00
2022-09-18T03:19:29.288Z,100.00
2022-09-18T03:21:52.176Z,100.00
2022-09-18T03:24:13.595Z,100.00
2022-09-18T03:26:35.067Z,100.00
2022-09-18T03:28:56.542Z,100.00
2022-09-18T03:31:18.045Z,100.00
2022-09-18T03:33:39.624Z,100.00
2022-09-18T03:36:01.327Z,100.00
2022-09-18T03:38:22.765Z,100.00
2022-09-18T03:40:47.846Z,100.00
2022-09-18T03:43:09.709Z,100.00
2022-09-18T03:45:31.184Z,100.00
2022-09-18T03:47:53.055Z,100.00
2022-09-18T03:50:15.095Z,100.00
2022-09-18T03:52:36.653Z,100.00
2022-09-18T03:54:58.113Z,100.00
2022-09-18T03:57:19.554Z,100.00
2022-09-18T03:59:40.968Z,100.00
2022-09-18T04:02:02.530Z,100.00
2022-09-18T04:04:24.397Z,100.00
2022-09-18T04:06:45.845Z,100.00
2022-09-18T04:09:07.671Z,100.00
2022-09-18T04:11:29.122Z,100.00
2022-09-18T04:13:50.544Z,100.00
2022-09-18T04:16:12.046Z,100.00
2022-09-18T04:18:33.843Z,100.00
2022-09-18T04:20:55.328Z,100.00
2022-09-18T04:23:17.572Z,100.00
2022-09-18T04:25:40.467Z,100.00
2022-09-18T04:28:02.243Z,100.00
2022-09-18T04:30:23.817Z,100.00
2022-09-18T04:32:45.737Z,100.00
2022-09-18T04:35:07.699Z,100.00
2022-09-18T04:37:29.104Z,100.00
2022-09-18T04:39:50.566Z,100.00
2022-09-18T04:42:11.979Z,100.00
2022-09-18T04:44:33.414Z,100.00
2022-09-18T04:46:54.978Z,100.00
2022-09-18T04:49:16.724Z,100.00
2022-09-18T04:51:38.410Z,100.00
2022-09-18T04:53:59.966Z,100.00
2022-09-18T04:56:21.455Z,100.00
2022-09-18T04:58:42.867Z,100.00
2022-09-18T05:01:04.440Z,100.00
2022-09-18T05:03:25.881Z,100.00
2022-09-18T05:05:48.340Z,100.00
2022-09-18T05:08:09.752Z,100.00
2022-09-18T05:10:31.433Z,100.00
2022-09-18T05:12:52.904Z,100.00
2022-09-18T05:15:14.655Z,100.00
2022-09-18T05:17:36.044Z,100.00
2022-09-18T05:19:57.475Z,100.00
2022-09-18T05:22:18.950Z,100.00
2022-09-18T05:24:40.390Z,100.00
2022-09-18T05:27:01.820Z,100.00
2022-09-18T05:29:23.239Z,100.00
2022-09-18T05:31:44.757Z,100.00
2022-09-18T05:34:06.320Z,100.00
2022-09-18T05:36:27.782Z,100.00
2022-09-18T05:38:49.238Z,100.00
2022-09-18T05:41:10.700Z,100.00
2022-09-18T05:43:32.223Z,100.00
2022-09-18T05:45:53.807Z,100.00
2022-09-18T05:48:15.375Z,100.00
2022-09-18T05:50:37.272Z,100.00
2022-09-18T05:53:12.072Z,100.00
2022-09-18T05:55:34.022Z,100.00
2022-09-18T05:57:57.300Z,100.00
2022-09-18T06:00:18.816Z,100.00
2022-09-18T06:02:40.296Z,100.00
2022-09-18T06:05:01.722Z,100.00
2022-09-18T06:07:23.226Z,100.00
2022-09-18T06:09:44.693Z,100.00
2022-09-18T06:12:06.436Z,100.00
2022-09-18T06:14:27.906Z,100.00
2022-09-18T06:16:49.688Z,100.00
2022-09-18T06:19:11.180Z,100.00
2022-09-18T06:21:32.595Z,100.00
2022-09-18T06:23:53.985Z,100.00
2022-09-18T06:26:15.962Z,100.00
2022-09-18T06:28:37.406Z,99.68
2022-09-18T06:30:59.617Z,100.00
2022-09-18T06:33:21.080Z,100.00
2022-09-18T06:35:42.671Z,100.00
2022-09-18T06:38:05.893Z,100.00
2022-09-18T06:40:27.460Z,100.00
2022-09-18T06:42:48.993Z,100.00
2022-09-18T06:45:11.128Z,100.00
2022-09-18T06:47:32.611Z,100.00
2022-09-18T06:49:54.038Z,100.00
2022-09-18T06:52:15.513Z,100.00
2022-09-18T06:54:37.003Z,100.00
2022-09-18T06:56:58.421Z,100.00
2022-09-18T06:59:19.841Z,98.71
2022-09-18T07:01:41.309Z,99.00
2022-09-18T07:04:03.162Z,98.58
2022-09-18T07:06:24.944Z,98.43
2022-09-18T07:08:46.439Z,98.04
2022-09-18T07:11:07.918Z,99.19
2022-09-18T07:13:33.702Z,98.13
2022-09-18T07:15:55.166Z,96.90
2022-09-18T07:18:16.640Z,96.61
2022-09-18T07:20:38.066Z,96.36
2022-09-18T07:23:01.393Z,94.69
2022-09-18T07:25:23.795Z,94.18
2022-09-18T07:27:45.205Z,93.42
2022-09-18T07:30:07.095Z,93.89
2022-09-18T07:32:28.535Z,92.41
2022-09-18T07:34:50.419Z,90.51
2022-09-18T07:37:11.820Z,91.43
2022-09-18T07:39:33.255Z,90.06
2022-09-18T07:41:55.300Z,91.04
2022-09-18T07:44:16.725Z,90.22
2022-09-18T07:46:38.361Z,90.65
2022-09-18T07:48:59.938Z,91.42
2022-09-18T07:51:25.991Z,92.26
2022-09-18T07:53:48.952Z,89.97
2022-09-18T07:56:12.018Z,90.75
2022-09-18T07:58:33.520Z,91.32
2022-09-18T08:00:54.995Z,90.84
2022-09-18T08:03:18.470Z,92.12
2022-09-18T08:05:41.521Z,90.07
2022-09-18T08:08:04.294Z,89.47
2022-09-18T08:10:25.791Z,89.85
2022-09-18T08:12:47.231Z,91.43
2022-09-18T08:15:09.263Z,92.12
2022-09-18T08:17:30.676Z,91.63
2022-09-18T08:19:52.382Z,91.90
2022-09-18T08:22:13.804Z,91.30
2022-09-18T08:24:35.224Z,89.66
2022-09-18T08:27:03.206Z,90.77
2022-09-18T08:29:24.635Z,89.75
2022-09-18T08:31:46.945Z,89.11
2022-09-18T08:34:09.428Z,90.01
2022-09-18T08:36:30.824Z,91.61
2022-09-18T08:38:53.898Z,90.84
2022-09-18T08:41:39.611Z,89.75
2022-09-18T08:44:04.210Z,90.31
2022-09-18T08:46:43.137Z,88.43
2022-09-18T08:49:27.052Z,88.57
2022-09-18T08:52:16.557Z,86.98
2022-09-18T08:54:58.938Z,89.64
2022-09-18T08:57:44.049Z,88.74
2022-09-18T09:00:27.611Z,87.32
2022-09-18T09:03:18.347Z,89.38
2022-09-18T09:05:47.956Z,88.63
2022-09-18T09:08:31.247Z,86.21
2022-09-18T09:11:01.174Z,85.77
2022-09-18T09:13:52.962Z,85.99
2022-09-18T09:16:18.609Z,84.80
2022-09-18T09:18:59.335Z,87.22
2022-09-18T09:21:22.887Z,85.96
2022-09-18T09:24:42.124Z,86.76
2022-09-18T09:27:19.725Z,84.85
2022-09-18T09:29:43.961Z,83.00
2022-09-18T09:32:25.782Z,84.51
2022-09-18T09:34:56.945Z,82.41
2022-09-18T09:37:24.005Z,84.08
2022-09-18T09:39:54.353Z,82.83
2022-09-18T09:42:28.974Z,81.92
2022-09-18T09:45:08.712Z,80.10
2022-09-18T09:47:40.275Z,82.70
2022-09-18T09:50:13.020Z,85.15
2022-09-18T09:52:37.775Z,84.98
2022-09-18T09:55:14.638Z,86.16
2022-09-18T09:57:48.052Z,87.10
2022-09-18T10:00:19.771Z,86.52
2022-09-18T10:02:57.209Z,88.18
2022-09-18T10:05:24.618Z,87.25
2022-09-18T10:07:51.552Z,89.88
2022-09-18T10:10:27.576Z,91.66
2022-09-18T10:12:56.929Z,88.49
2022-09-18T10:15:39.771Z,88.36
2022-09-18T10:18:04.232Z,91.48
2022-09-18T10:20:28.566Z,90.97
2022-09-18T10:22:50.239Z,89.15
2022-09-18T10:25:26.606Z,89.91
2022-09-18T10:27:48.029Z,88.32
2022-09-18T10:30:13.622Z,91.09
2022-09-18T10:32:38.143Z,91.77
2022-09-18T10:34:59.581Z,89.99
2022-09-18T10:37:30.028Z,92.21
2022-09-18T10:39:54.214Z,91.99
2022-09-18T10:42:19.244Z,94.08
2022-09-18T10:44:43.238Z,93.30
2022-09-18T10:47:18.329Z,91.80
2022-09-18T10:49:53.181Z,90.33
2022-09-18T10:52:22.043Z,90.82
2022-09-18T10:55:09.272Z,92.87
2022-09-18T10:57:33.272Z,91.52
2022-09-18T10:59:54.728Z,91.57
2022-09-18T11:02:19.700Z,93.75
2022-09-18T11:04:45.851Z,94.00
2022-09-18T11:07:11.076Z,93.17
2022-09-18T11:09:38.877Z,94.58
2022-09-18T11:12:00.518Z,93.64
2022-09-18T11:14:40.434Z,93.58
2022-09-18T11:17:02.375Z,93.69
2022-09-18T11:19:31.263Z,94.20
2022-09-18T11:21:56.121Z,93.04
2022-09-18T11:24:31.315Z,96.63
2022-09-18T11:27:00.507Z,95.54
2022-09-18T11:29:33.361Z,93.26
2022-09-18T11:32:04.275Z,96.09
2022-09-18T11:34:30.038Z,94.87
2022-09-18T11:36:56.531Z,93.59
2022-09-18T11:39:27.320Z,93.96
2022-09-18T11:41:50.621Z,90.54
2022-09-18T11:44:17.448Z,92.48
2022-09-18T11:47:09.576Z,92.14
2022-09-18T11:49:47.894Z,91.24
2022-09-18T11:52:21.908Z,91.60
2022-09-18T11:54:55.533Z,91.82
2022-09-18T11:57:22.222Z,90.46
2022-09-18T11:59:57.003Z,91.88
2022-09-18T12:02:39.014Z,86.31
2022-09-18T12:05:17.505Z,88.68
2022-09-18T12:07:57.755Z,87.90
2022-09-18T12:10:42.895Z,87.17
2022-09-18T12:13:28.320Z,87.85
2022-09-18T12:15:59.923Z,87.18
2022-09-18T12:18:27.497Z,87.12
2022-09-18T12:20:57.148Z,85.09
2022-09-18T12:23:23.732Z,85.44
2022-09-18T12:26:15.171Z,84.35
2022-09-18T12:29:01.435Z,84.12
2022-09-18T12:31:55.472Z,85.60
2022-09-18T12:34:43.571Z,84.75
2022-09-18T12:37:08.821Z,86.37
2022-09-18T12:39:36.673Z,84.87
2022-09-18T12:42:14.673Z,86.47
2022-09-18T12:44:54.667Z,85.86
2022-09-18T12:47:27.871Z,87.66
2022-09-18T12:50:16.824Z,87.89
2022-09-18T12:53:09.094Z,87.20
2022-09-18T12:56:01.384Z,88.85
2022-09-18T12:58:31.862Z,89.60
2022-09-18T13:00:54.036Z,90.60
2022-09-18T13:03:30.198Z,91.06
2022-09-18T13:06:12.234Z,90.68
2022-09-18T13:08:41.429Z,91.08
2022-09-18T13:11:10.756Z,91.57
2022-09-18T13:13:43.687Z,93.76
2022-09-18T13:16:17.709Z,94.22
2022-09-18T13:19:01.808Z,93.10
2022-09-18T13:21:33.153Z,94.93
2022-09-18T13:23:55.575Z,94.57
2022-09-18T13:26:18.497Z,94.15
2022-09-18T13:28:43.729Z,94.47
2022-09-18T13:31:27.729Z,96.51
2022-09-18T13:33:54.753Z,96.80
2022-09-18T13:36:23.792Z,97.65
2022-09-18T13:38:48.678Z,99.17
2022-09-18T13:41:12.110Z,100.00
2022-09-18T13:43:40.541Z,99.99
2022-09-18T13:46:06.806Z,100.00
2022-09-18T13:48:30.253Z,97.84
2022-09-18T13:51:29.528Z,98.34
2022-09-18T13:54:17.562Z,100.00
2022-09-18T13:57:04.990Z,100.00
2022-09-18T13:59:45.054Z,100.00
2022-09-18T14:02:23.597Z,100.00
2022-09-18T14:04:49.746Z,100.00
2022-09-18T14:07:31.158Z,100.00
2022-09-18T14:09:55.980Z,100.00
2022-09-18T14:12:18.548Z,100.00
2022-09-18T14:14:40.826Z,100.00
2022-09-18T14:17:13.628Z,100.00
2022-09-18T14:19:36.956Z,100.00
2022-09-18T14:22:00.340Z,100.00
2022-09-18T14:24:37.797Z,100.00
2022-09-18T14:27:19.316Z,100.00
2022-09-18T14:29:41.014Z,100.00
2022-09-18T14:32:02.829Z,100.00
2022-09-18T14:34:33.454Z,100.00
2022-09-18T14:37:01.498Z,100.00
2022-09-18T14:39:31.928Z,100.00
2022-09-18T14:41:55.918Z,100.00
2022-09-18T14:44:17.615Z,100.00
2022-09-18T14:46:53.061Z,100.00
2022-09-18T14:49:42.139Z,100.00
2022-09-18T14:52:19.764Z,100.00
2022-09-18T14:54:47.576Z,100.00
2022-09-18T14:57:14.082Z,100.00
2022-09-18T14:59:36.065Z,100.00
2022-09-18T15:02:13.142Z,100.00
2022-09-18T15:04:35.489Z,100.00
2022-09-18T15:06:57.912Z,100.00
2022-09-18T15:09:34.640Z,100.00
2022-09-18T15:12:02.655Z,100.00
2022-09-18T15:14:34.055Z,100.00
2022-09-18T15:17:02.640Z,100.00
2022-09-18T15:19:24.765Z,100.00
2022-09-18T15:21:47.678Z,100.00
2022-09-18T15:24:15.295Z,100.00
2022-09-18T15:26:43.591Z,100.00
2022-09-18T15:29:13.235Z,100.00
2022-09-18T15:31:35.251Z,100.00
2022-09-18T15:34:18.831Z,100.00
2022-09-18T15:36:41.207Z,100.00
2022-09-18T15:39:05.604Z,100.00
2022-09-18T15:41:37.588Z,100.00
2022-09-18T15:43:59.591Z,100.00
2022-09-18T15:46:31.261Z,100.00
2022-09-18T15:48:56.231Z,100.00
2022-09-18T15:51:26.120Z,100.00
2022-09-18T15:54:13.044Z,100.00
2022-09-18T15:56:36.890Z,100.00
2022-09-18T15:59:00.787Z,100.00
2022-09-18T16:01:29.436Z,100.00
2022-09-18T16:04:06.632Z,100.00
2022-09-18T16:06:32.585Z,100.00
2022-09-18T16:08:56.654Z,100.00
2022-09-18T16:11:44.766Z,100.00
2022-09-18T16:14:37.066Z,100.00
2022-09-18T16:17:33.776Z,100.00
2022-09-18T16:20:00.353Z,100.00
2022-09-18T16:22:21.813Z,97.80
2022-09-18T16:24:43.253Z,100.00
2022-09-18T16:27:06.652Z,100.00
2022-09-18T16:29:28.074Z,100.00
2022-09-18T16:31:49.558Z,100.00
2022-09-18T16:34:28.045Z,100.00
2022-09-18T16:36:50.801Z,100.00
2022-09-18T16:39:20.132Z,100.00
2022-09-18T16:41:42.082Z,99.60
2022-09-18T16:44:05.223Z,100.00
2022-09-18T16:46:37.536Z,96.75
2022-09-18T16:49:00.337Z,98.30
2022-09-18T16:51:22.032Z,99.16
2022-09-18T16:53:44.038Z,98.82
2022-09-18T16:56:11.286Z,99.74
2022-09-18T16:58:32.720Z,100.00
2022-09-18T17:00:54.267Z,96.35
2022-09-18T17:03:18.060Z,95.32
2022-09-18T17:05:39.648Z,98.58
2022-09-18T17:08:03.955Z,96.56
2022-09-18T17:10:25.530Z,95.71
2022-09-18T17:12:46.980Z,95.17
2022-09-18T17:15:09.391Z,98.49
2022-09-18T17:17:31.309Z,98.75
2022-09-18T17:19:53.019Z,99.62
2022-09-18T17:22:14.443Z,100.00
2022-09-18T17:24:36.078Z,100.00
2022-09-18T17:26:57.498Z,100.00
2022-09-18T17:29:18.940Z,100.00
2022-09-18T17:31:40.474Z,97.91
2022-09-18T17:34:02.348Z,96.86
2022-09-18T17:36:23.922Z,100.00
2022-09-18T17:38:46.448Z,100.00
2022-09-18T17:41:11.557Z,100.00
2022-09-18T17:43:32.998Z,100.00
2022-09-18T17:45:59.503Z,99.08
2022-09-18T17:48:20.994Z,99.85
2022-09-18T17:50:42.429Z,100.00
2022-09-18T17:53:03.835Z,100.00
2022-09-18T17:55:25.333Z,100.00
2022-09-18T17:57:46.777Z,100.00
2022-09-18T18:00:09.838Z,100.00
2022-09-18T18:02:31.863Z,100.00
2022-09-18T18:04:53.368Z,100.00
2022-09-18T18:07:14.823Z,100.00
2022-09-18T18:09:37.525Z,100.00
2022-09-18T18:11:59.560Z,100.00
2022-09-18T18:14:25.099Z,99.04
2022-09-18T18:16:49.747Z,100.00
2022-09-18T18:19:13.489Z,100.00
2022-09-18T18:21:35.670Z,100.00
2022-09-18T18:23:59.470Z,99.52
2022-09-18T18:26:20.870Z,99.64
2022-09-18T18:28:42.719Z,100.00
2022-09-18T18:31:12.178Z,100.00
2022-09-18T18:33:35.397Z,100.00
2022-09-18T18:36:10.712Z,99.40
2022-09-18T18:38:32.105Z,99.62
2022-09-18T18:40:53.687Z,100.00
2022-09-18T18:43:15.379Z,100.00
2022-09-18T18:45:37.498Z,100.00
2022-09-18T18:47:58.969Z,99.38
2022-09-18T18:50:21.857Z,100.00
2022-09-18T18:52:43.960Z,100.00
2022-09-18T18:55:05.845Z,100.00
2022-09-18T18:57:27.236Z,100.00
2022-09-18T18:59:48.656Z,100.00
2022-09-18T19:02:13.070Z,100.00
2022-09-18T19:04:34.689Z,100.00
2022-09-18T19:06:56.655Z,100.00
2022-09-18T19:09:24.371Z,100.00
2022-09-18T19:11:48.191Z,100.00
2022-09-18T19:14:16.980Z,100.00
2022-09-18T19:16:39.203Z,100.00
2022-09-18T19:19:00.663Z,100.00
2022-09-18T19:21:22.750Z,100.00
2022-09-18T19:23:48.491Z,100.00
2022-09-18T19:26:11.379Z,100.00
2022-09-18T19:28:32.824Z,100.00
2022-09-18T19:30:55.390Z,100.00
2022-09-18T19:33:17.162Z,100.00
2022-09-18T19:35:38.563Z,100.00
2022-09-18T19:38:00.511Z,100.00
2022-09-18T19:40:21.960Z,100.00
2022-09-18T19:42:55.548Z,100.00
2022-09-18T19:45:22.426Z,100.00
2022-09-18T19:47:50.459Z,100.00
2022-09-18T19:50:23.624Z,100.00
2022-09-18T19:52:48.503Z,100.00
2022-09-18T19:55:16.177Z,100.00
2022-09-18T19:57:37.574Z,100.00
2022-09-18T20:00:01.074Z,100.00
2022-09-18T20:02:24.127Z,100.00
2022-09-18T20:04:45.699Z,100.00
2022-09-18T20:07:07.732Z,100.00
2022-09-18T20:09:30.622Z,100.00
2022-09-18T20:11:52.030Z,100.00
2022-09-18T20:14:13.458Z,100.00
2022-09-18T20:16:34.991Z,100.00
2022-09-18T20:18:56.519Z,100.00
2022-09-18T20:21:19.116Z,100.00
2022-09-18T20:23:41.117Z,100.00
2022-09-18T20:26:07.502Z,100.00
2022-09-18T20:28:28.984Z,100.00
2022-09-18T20:30:50.387Z,100.00
2022-09-18T20:33:12.515Z,100.00
2022-09-18T20:35:35.892Z,100.00
2022-09-18T20:37:59.674Z,100.00
2022-09-18T20:40:21.146Z,100.00
2022-09-18T20:42:42.612Z,100.00
2022-09-18T20:45:04.460Z,100.00
2022-09-18T20:47:26.213Z,100.00
2022-09-18T20:49:49.803Z,100.00
2022-09-18T20:52:14.649Z,100.00
2022-09-18T20:54:36.197Z,100.00
2022-09-18T20:56:57.780Z,100.00
2022-09-18T20:59:19.702Z,100.00
2022-09-18T21:01:42.068Z,100.00
2022-09-18T21:04:04.536Z,100.00
2022-09-18T21:06:31.601Z,100.00
2022-09-18T21:08:54.820Z,100.00
2022-09-18T21:11:18.420Z,100.00
2022-09-18T21:13:43.417Z,100.00
2022-09-18T21:16:05.952Z,100.00
2022-09-18T21:18:27.458Z,100.00
2022-09-18T21:20:48.867Z,100.00
2022-09-18T21:23:30.223Z,100.00
2022-09-18T21:25:51.668Z,100.00
2022-09-18T21:28:13.363Z,100.00
2022-09-18T21:30:34.788Z,100.00
2022-09-18T21:32:56.224Z,100.00
2022-09-18T21:35:18.785Z,100.00
2022-09-18T21:37:40.244Z,100.00
2022-09-18T21:40:02.846Z,100.00
2022-09-18T21:42:25.936Z,100.00
2022-09-18T21:44:47.401Z,100.00
2022-09-18T21:47:10.778Z,100.00
2022-09-18T21:49:32.888Z,100.00
2022-09-18T21:51:56.693Z,100.00
2022-09-18T21:54:22.337Z,100.00
2022-09-18T21:56:49.391Z,100.00
2022-09-18T21:59:11.372Z,100.00
2022-09-18T22:01:33.451Z,100.00
2022-09-18T22:03:57.635Z,100.00
2022-09-18T22:06:26.039Z,100.00
2022-09-18T22:08:50.202Z,100.00
2022-09-18T22:11:11.638Z,100.00
2022-09-18T22:13:33.042Z,100.00
2022-09-18T22:15:56.448Z,100.00
2022-09-18T22:18:17.882Z,100.00
2022-09-18T22:20:39.330Z,100.00
2022-09-18T22:23:00.739Z,100.00
2022-09-18T22:25:22.173Z,100.00
2022-09-18T22:27:44.183Z,100.00
2022-09-18T22:30:06.176Z,100.00
2022-09-18T22:32:28.724Z,100.00
2022-09-18T22:34:52.592Z,100.00
2022-09-18T22:37:14.083Z,100.00
2022-09-18T22:39:35.523Z,100.00
2022-09-18T22:41:57.250Z,100.00
2022-09-18T22:44:22.770Z,100.00
2022-09-18T22:46:46.379Z,100.00
2022-09-18T22:49:08.867Z,100.00
2022-09-18T22:51:30.296Z,100.00
2022-09-18T22:53:54.314Z,100.00
2022-09-18T22:56:17.023Z,100.00
2022-09-18T22:58:41.370Z,100.00
2022-09-18T23:01:19.305Z,100.00
2022-09-18T23:03:41.243Z,100.00
2022-09-18T23:06:03.387Z,100.00
2022-09-18T23:08:25.022Z,100.00
2022-09-18T23:10:46.475Z,100.00
2022-09-18T23:13:09.353Z,100.00
2022-09-18T23:15:30.765Z,100.00
2022-09-18T23:17:52.555Z,100.00
2022-09-18T23:20:15.300Z,100.00
2022-09-18T23:22:37.068Z,100.00
2022-09-18T23:24:58.505Z,100.00
2022-09-18T23:27:19.907Z,100.00
2022-09-18T23:29:41.374Z,100.00
2022-09-18T23:32:04.308Z,100.00
2022-09-18T23:34:30.899Z,100.00
2022-09-18T23:36:54.593Z,100.00
2022-09-18T23:39:22.202Z,100.00
2022-09-18T23:41:44.027Z,100.00
2022-09-18T23:44:08.191Z,100.00
2022-09-18T23:46:29.811Z,100.00
2022-09-18T23:48:55.082Z,100.00
2022-09-18T23:51:16.610Z,100.00
2022-09-18T23:53:39.509Z,100.00
2022-09-18T23:56:12.050Z,100.00
2022-09-18T23:58:34.059Z,100.00
